sensor_id;sensor_type;location;lat;lon;timestamp;P1;durP1;ratioP1;P2;durP2;ratioP2
74543;SDS011;63016;55.030;38.710;2022-08-21T00:00:06;62.70;;;40.58;;
74543;SDS011;63016;55.030;38.710;2022-08-21T00:02:34;65.45;;;39.45;;
74543;SDS011;63016;55.030;38.710;2022-08-21T00:04:59;67.30;;;40.33;;
74543;SDS011;63016;55.030;38.710;2022-08-21T00:07:25;64.82;;;40.00;;
74543;SDS011;63016;55.030;38.710;2022-08-21T00:09:51;73.75;;;42.60;;
74543;SDS011;63016;55.030;38.710;2022-08-21T00:12:17;66.97;;;42.63;;
74543;SDS011;63016;55.030;38.710;2022-08-21T00:14:42;76.28;;;44.63;;
74543;SDS011;63016;55.030;38.710;2022-08-21T00:17:08;78.40;;;44.35;;
74543;SDS011;63016;55.030;38.710;2022-08-21T00:19:34;79.63;;;44.85;;
74543;SDS011;63016;55.030;38.710;2022-08-21T00:21:59;75.70;;;46.45;;
74543;SDS011;63016;55.030;38.710;2022-08-21T00:24:25;76.95;;;45.08;;
74543;SDS011;63016;55.030;38.710;2022-08-21T00:26:51;79.00;;;45.20;;
74543;SDS011;63016;55.030;38.710;2022-08-21T00:29:17;70.30;;;42.45;;
74543;SDS011;63016;55.030;38.710;2022-08-21T00:31:43;71.30;;;41.67;;
74543;SDS011;63016;55.030;38.710;2022-08-21T00:34:10;75.97;;;44.40;;
74543;SDS011;63016;55.030;38.710;2022-08-21T00:36:36;69.75;;;40.15;;
74543;SDS011;63016;55.030;38.710;2022-08-21T18:28:30;21.73;;;20.33;;
74543;SDS011;63016;55.030;38.710;2022-08-21T18:30:56;20.02;;;18.88;;
74543;SDS011;63016;55.030;38.710;2022-08-21T18:33:22;18.15;;;16.98;;
74543;SDS011;63016;55.030;38.710;2022-08-21T18:35:49;18.45;;;16.95;;
74543;SDS011;63016;55.030;38.710;2022-08-21T18:38:15;18.63;;;17.02;;
74543;SDS011;63016;55.030;38.710;2022-08-21T18:40:45;17.38;;;16.27;;
74543;SDS011;63016;55.030;38.710;2022-08-21T18:43:14;16.02;;;14.77;;
74543;SDS011;63016;55.030;38.710;2022-08-21T18:45:40;15.00;;;13.93;;
74543;SDS011;63016;55.030;38.710;2022-08-21T18:48:07;14.38;;;13.43;;
74543;SDS011;63016;55.030;38.710;2022-08-21T18:50:37;15.07;;;13.77;;
74543;SDS011;63016;55.030;38.710;2022-08-21T18:53:05;14.50;;;13.50;;
74543;SDS011;63016;55.030;38.710;2022-08-21T18:55:32;16.52;;;15.00;;
74543;SDS011;63016;55.030;38.710;2022-08-21T18:58:02;14.50;;;13.35;;
74543;SDS011;63016;55.030;38.710;2022-08-21T19:00:29;15.57;;;14.43;;
74543;SDS011;63016;55.030;38.710;2022-08-21T19:02:57;14.77;;;13.88;;
74543;SDS011;63016;55.030;38.710;2022-08-21T19:05:23;13.45;;;12.48;;
74543;SDS011;63016;55.030;38.710;2022-08-21T19:07:49;15.23;;;14.13;;
74543;SDS011;63016;55.030;38.710;2022-08-21T19:10:16;15.25;;;14.27;;
74543;SDS011;63016;55.030;38.710;2022-08-21T19:12:42;13.02;;;12.27;;
74543;SDS011;63016;55.030;38.710;2022-08-21T19:15:10;14.40;;;13.02;;
74543;SDS011;63016;55.030;38.710;2022-08-21T19:17:38;13.05;;;12.15;;
74543;SDS011;63016;55.030;38.710;2022-08-21T19:20:07;13.27;;;12.38;;
74543;SDS011;63016;55.030;38.710;2022-08-21T19:22:36;13.82;;;12.90;;
74543;SDS011;63016;55.030;38.710;2022-08-21T19:25:03;12.90;;;11.98;;
74543;SDS011;63016;55.030;38.710;2022-08-21T19:27:30;13.48;;;12.65;;
74543;SDS011;63016;55.030;38.710;2022-08-21T19:29:56;12.98;;;11.93;;
74543;SDS011;63016;55.030;38.710;2022-08-21T19:32:22;12.65;;;11.55;;
74543;SDS011;63016;55.030;38.710;2022-08-21T19:34:48;13.93;;;12.95;;
74543;SDS011;63016;55.030;38.710;2022-08-21T19:37:14;12.70;;;12.00;;
74543;SDS011;63016;55.030;38.710;2022-08-21T19:39:41;13.88;;;12.60;;
74543;SDS011;63016;55.030;38.710;2022-08-21T19:42:07;13.15;;;12.10;;
74543;SDS011;63016;55.030;38.710;2022-08-21T19:44:34;16.38;;;13.65;;
74543;SDS011;63016;55.030;38.710;2022-08-21T19:47:01;13.13;;;12.32;;
74543;SDS011;63016;55.030;38.710;2022-08-21T19:49:29;17.70;;;14.15;;
74543;SDS011;63016;55.030;38.710;2022-08-21T19:51:58;14.30;;;13.30;;
74543;SDS011;63016;55.030;38.710;2022-08-21T19:54:25;14.27;;;13.43;;
74543;SDS011;63016;55.030;38.710;2022-08-21T19:56:54;15.27;;;14.02;;
74543;SDS011;63016;55.030;38.710;2022-08-21T19:59:21;14.18;;;13.18;;
74543;SDS011;63016;55.030;38.710;2022-08-21T20:01:49;16.23;;;15.00;;
74543;SDS011;63016;55.030;38.710;2022-08-21T20:04:15;14.82;;;13.88;;
74543;SDS011;63016;55.030;38.710;2022-08-21T20:06:41;13.82;;;12.80;;
74543;SDS011;63016;55.030;38.710;2022-08-21T20:09:07;15.93;;;14.90;;
74543;SDS011;63016;55.030;38.710;2022-08-21T20:11:41;15.43;;;14.38;;
74543;SDS011;63016;55.030;38.710;2022-08-21T20:14:12;15.23;;;14.23;;
74543;SDS011;63016;55.030;38.710;2022-08-21T20:16:40;16.02;;;14.68;;
74543;SDS011;63016;55.030;38.710;2022-08-21T20:19:06;13.43;;;12.43;;
74543;SDS011;63016;55.030;38.710;2022-08-21T20:21:33;14.57;;;13.30;;
74543;SDS011;63016;55.030;38.710;2022-08-21T20:24:00;14.07;;;11.52;;
74543;SDS011;63016;55.030;38.710;2022-08-21T20:26:26;14.38;;;13.30;;
74543;SDS011;63016;55.030;38.710;2022-08-21T20:28:52;13.00;;;11.63;;
74543;SDS011;63016;55.030;38.710;2022-08-21T20:31:19;14.98;;;13.82;;
74543;SDS011;63016;55.030;38.710;2022-08-21T20:33:45;13.52;;;12.80;;
74543;SDS011;63016;55.030;38.710;2022-08-21T20:36:11;12.90;;;11.88;;
74543;SDS011;63016;55.030;38.710;2022-08-21T20:38:37;14.82;;;13.80;;
74543;SDS011;63016;55.030;38.710;2022-08-21T20:41:03;12.98;;;11.98;;
74543;SDS011;63016;55.030;38.710;2022-08-21T20:43:31;14.75;;;13.90;;
74543;SDS011;63016;55.030;38.710;2022-08-21T20:46:03;13.38;;;12.65;;
74543;SDS011;63016;55.030;38.710;2022-08-21T20:48:36;15.07;;;13.70;;
74543;SDS011;63016;55.030;38.710;2022-08-21T20:51:06;15.63;;;14.23;;
74543;SDS011;63016;55.030;38.710;2022-08-21T20:59:22;15.90;;;14.90;;
74543;SDS011;63016;55.030;38.710;2022-08-21T21:01:59;15.48;;;14.13;;
74543;SDS011;63016;55.030;38.710;2022-08-21T21:04:42;14.23;;;12.95;;
74543;SDS011;63016;55.030;38.710;2022-08-21T21:07:13;14.55;;;13.55;;
74543;SDS011;63016;55.030;38.710;2022-08-21T21:09:45;17.20;;;15.73;;
74543;SDS011;63016;55.030;38.710;2022-08-21T21:12:16;15.00;;;13.85;;
74543;SDS011;63016;55.030;38.710;2022-08-21T21:14:57;14.43;;;13.63;;
74543;SDS011;63016;55.030;38.710;2022-08-21T21:17:34;14.48;;;13.65;;
74543;SDS011;63016;55.030;38.710;2022-08-21T21:20:16;13.52;;;12.73;;
74543;SDS011;63016;55.030;38.710;2022-08-21T21:22:52;15.02;;;13.75;;
74543;SDS011;63016;55.030;38.710;2022-08-21T21:25:25;15.43;;;14.43;;
74543;SDS011;63016;55.030;38.710;2022-08-21T21:28:07;14.32;;;13.30;;
74543;SDS011;63016;55.030;38.710;2022-08-21T21:30:40;16.58;;;15.25;;
74543;SDS011;63016;55.030;38.710;2022-08-21T21:33:08;16.83;;;15.63;;
74543;SDS011;63016;55.030;38.710;2022-08-21T21:35:39;15.13;;;14.15;;
74543;SDS011;63016;55.030;38.710;2022-08-21T21:38:09;15.07;;;14.27;;
74543;SDS011;63016;55.030;38.710;2022-08-21T21:46:30;18.25;;;16.58;;
74543;SDS011;63016;55.030;38.710;2022-08-21T21:49:27;16.73;;;15.77;;
74543;SDS011;63016;55.030;38.710;2022-08-21T22:02:43;16.42;;;14.90;;
74543;SDS011;63016;55.030;38.710;2022-08-21T22:16:43;17.63;;;16.35;;
74543;SDS011;63016;55.030;38.710;2022-08-21T22:19:12;17.83;;;16.10;;
74543;SDS011;63016;55.030;38.710;2022-08-21T22:24:49;16.85;;;15.25;;
74543;SDS011;63016;55.030;38.710;2022-08-21T22:27:20;14.98;;;13.70;;
74543;SDS011;63016;55.030;38.710;2022-08-21T22:29:54;15.57;;;14.18;;
74543;SDS011;63016;55.030;38.710;2022-08-21T22:35:04;15.98;;;14.20;;
74543;SDS011;63016;55.030;38.710;2022-08-21T22:37:37;16.08;;;15.02;;
74543;SDS011;63016;55.030;38.710;2022-08-21T22:40:06;17.05;;;15.52;;
74543;SDS011;63016;55.030;38.710;2022-08-21T22:42:32;14.98;;;13.38;;
74543;SDS011;63016;55.030;38.710;2022-08-21T22:45:02;15.95;;;14.38;;
74543;SDS011;63016;55.030;38.710;2022-08-21T22:47:34;15.00;;;13.68;;
74543;SDS011;63016;55.030;38.710;2022-08-21T22:50:06;17.85;;;15.68;;
74543;SDS011;63016;55.030;38.710;2022-08-21T22:53:07;16.73;;;15.23;;
74543;SDS011;63016;55.030;38.710;2022-08-21T22:55:43;14.95;;;13.40;;
74543;SDS011;63016;55.030;38.710;2022-08-21T22:58:19;15.27;;;13.85;;
74543;SDS011;63016;55.030;38.710;2022-08-21T23:03:43;15.38;;;14.27;;
74543;SDS011;63016;55.030;38.710;2022-08-21T23:08:51;18.60;;;14.75;;
74543;SDS011;63016;55.030;38.710;2022-08-21T23:11:19;15.52;;;14.13;;
74543;SDS011;63016;55.030;38.710;2022-08-21T23:13:49;13.75;;;12.55;;
74543;SDS011;63016;55.030;38.710;2022-08-21T23:22:07;16.13;;;14.65;;
74543;SDS011;63016;55.030;38.710;2022-08-21T23:27:49;19.48;;;16.40;;
74543;SDS011;63016;55.030;38.710;2022-08-21T23:30:41;15.90;;;14.52;;
74543;SDS011;63016;55.030;38.710;2022-08-21T23:39:11;15.77;;;14.27;;
74543;SDS011;63016;55.030;38.710;2022-08-21T23:44:31;10.88;;;9.75;;
74543;SDS011;63016;55.030;38.710;2022-08-21T23:52:38;15.35;;;13.48;;
74543;SDS011;63016;55.030;38.710;2022-08-21T23:58:01;15.23;;;13.80;;
